sensor_id;sensor_type;location;lat;lon;timestamp;temperature;humidity
35690;DHT22;26977;44.830;-0.674;2022-10-01T00:00:55;13.60;99.90
35690;DHT22;26977;44.830;-0.674;2022-10-01T00:03:23;13.60;99.90
35690;DHT22;26977;44.830;-0.674;2022-10-01T00:08:31;13.60;99.90
35690;DHT22;26977;44.830;-0.674;2022-10-01T00:10:57;13.50;99.90
35690;DHT22;26977;44.830;-0.674;2022-10-01T00:13:26;13.60;99.90
35690;DHT22;26977;44.830;-0.674;2022-10-01T00:15:52;13.50;99.90
35690;DHT22;26977;44.830;-0.674;2022-10-01T00:18:18;13.60;99.90
35690;DHT22;26977;44.830;-0.674;2022-10-01T00:20:43;13.50;99.90
35690;DHT22;26977;44.830;-0.674;2022-10-01T00:23:13;13.50;99.90
35690;DHT22;26977;44.830;-0.674;2022-10-01T00:25:39;13.50;99.90
35690;DHT22;26977;44.830;-0.674;2022-10-01T00:28:05;13.50;99.90
35690;DHT22;26977;44.830;-0.674;2022-10-01T00:30:31;13.50;99.90
35690;DHT22;26977;44.830;-0.674;2022-10-01T00:32:57;13.50;99.90
35690;DHT22;26977;44.830;-0.674;2022-10-01T00:35:23;13.60;99.90
35690;DHT22;26977;44.830;-0.674;2022-10-01T00:37:49;13.60;99.90
35690;DHT22;26977;44.830;-0.674;2022-10-01T00:40:21;13.60;99.90
35690;DHT22;26977;44.830;-0.674;2022-10-01T00:42:48;13.60;99.90
35690;DHT22;26977;44.830;-0.674;2022-10-01T00:45:15;13.60;99.90
35690;DHT22;26977;44.830;-0.674;2022-10-01T00:47:48;13.60;99.90
35690;DHT22;26977;44.830;-0.674;2022-10-01T00:50:26;13.60;99.90
35690;DHT22;26977;44.830;-0.674;2022-10-01T00:52:56;13.70;99.90
35690;DHT22;26977;44.830;-0.674;2022-10-01T00:55:47;13.70;99.90
35690;DHT22;26977;44.830;-0.674;2022-10-01T00:58:17;13.70;99.90
35690;DHT22;26977;44.830;-0.674;2022-10-01T01:00:43;13.80;99.90
35690;DHT22;26977;44.830;-0.674;2022-10-01T01:03:10;13.80;99.90
35690;DHT22;26977;44.830;-0.674;2022-10-01T01:05:36;13.80;99.90
35690;DHT22;26977;44.830;-0.674;2022-10-01T01:08:03;13.80;99.90
35690;DHT22;26977;44.830;-0.674;2022-10-01T01:16:26;13.90;99.90
35690;DHT22;26977;44.830;-0.674;2022-10-01T01:19:07;13.90;99.90
35690;DHT22;26977;44.830;-0.674;2022-10-01T01:21:42;13.90;99.90
35690;DHT22;26977;44.830;-0.674;2022-10-01T01:24:38;14.00;99.90
35690;DHT22;26977;44.830;-0.674;2022-10-01T01:30:01;13.90;99.90
35690;DHT22;26977;44.830;-0.674;2022-10-01T01:32:56;14.00;99.90
35690;DHT22;26977;44.830;-0.674;2022-10-01T01:35:40;14.00;99.90
35690;DHT22;26977;44.830;-0.674;2022-10-01T01:38:11;14.00;99.90
35690;DHT22;26977;44.830;-0.674;2022-10-01T01:40:41;14.00;99.90
35690;DHT22;26977;44.830;-0.674;2022-10-01T01:43:11;14.10;99.90
35690;DHT22;26977;44.830;-0.674;2022-10-01T01:45:41;14.00;99.90
35690;DHT22;26977;44.830;-0.674;2022-10-01T01:48:07;14.10;99.90
35690;DHT22;26977;44.830;-0.674;2022-10-01T01:50:42;14.10;99.90
35690;DHT22;26977;44.830;-0.674;2022-10-01T01:53:09;14.20;99.90
35690;DHT22;26977;44.830;-0.674;2022-10-01T01:55:36;14.20;99.90
35690;DHT22;26977;44.830;-0.674;2022-10-01T01:58:02;14.20;99.90
35690;DHT22;26977;44.830;-0.674;2022-10-01T02:00:28;14.20;99.90
35690;DHT22;26977;44.830;-0.674;2022-10-01T02:02:55;14.20;99.90
35690;DHT22;26977;44.830;-0.674;2022-10-01T02:05:24;14.20;99.90
35690;DHT22;26977;44.830;-0.674;2022-10-01T02:23:34;14.30;99.90
35690;DHT22;26977;44.830;-0.674;2022-10-01T02:26:09;14.30;99.90
35690;DHT22;26977;44.830;-0.674;2022-10-01T02:28:38;14.40;99.90
35690;DHT22;26977;44.830;-0.674;2022-10-01T02:31:06;14.50;99.90
35690;DHT22;26977;44.830;-0.674;2022-10-01T02:33:34;14.50;99.90
35690;DHT22;26977;44.830;-0.674;2022-10-01T02:36:05;14.60;99.90
35690;DHT22;26977;44.830;-0.674;2022-10-01T02:38:32;14.50;99.90
35690;DHT22;26977;44.830;-0.674;2022-10-01T02:41:01;14.50;99.90
35690;DHT22;26977;44.830;-0.674;2022-10-01T02:43:36;14.60;99.90
35690;DHT22;26977;44.830;-0.674;2022-10-01T02:46:12;14.50;99.90
35690;DHT22;26977;44.830;-0.674;2022-10-01T02:48:40;14.50;99.90
35690;DHT22;26977;44.830;-0.674;2022-10-01T02:53:45;14.50;99.90
35690;DHT22;26977;44.830;-0.674;2022-10-01T02:56:13;14.40;99.90
35690;DHT22;26977;44.830;-0.674;2022-10-01T02:58:59;14.40;99.90
35690;DHT22;26977;44.830;-0.674;2022-10-01T03:01:25;14.40;99.90
35690;DHT22;26977;44.830;-0.674;2022-10-01T03:03:50;14.40;99.90
35690;DHT22;26977;44.830;-0.674;2022-10-01T03:06:18;14.40;99.90
35690;DHT22;26977;44.830;-0.674;2022-10-01T03:08:43;14.40;99.90
35690;DHT22;26977;44.830;-0.674;2022-10-01T03:11:09;14.50;99.90
35690;DHT22;26977;44.830;-0.674;2022-10-01T03:13:35;14.50;99.90
35690;DHT22;26977;44.830;-0.674;2022-10-01T03:16:01;14.50;99.90
35690;DHT22;26977;44.830;-0.674;2022-10-01T03:18:26;14.50;99.90
35690;DHT22;26977;44.830;-0.674;2022-10-01T03:20:52;14.50;99.90
35690;DHT22;26977;44.830;-0.674;2022-10-01T03:23:18;14.50;99.90
35690;DHT22;26977;44.830;-0.674;2022-10-01T03:25:43;14.40;99.90
35690;DHT22;26977;44.830;-0.674;2022-10-01T03:28:09;14.40;99.90
35690;DHT22;26977;44.830;-0.674;2022-10-01T03:30:34;14.40;99.90
35690;DHT22;26977;44.830;-0.674;2022-10-01T03:33:01;14.50;99.90
35690;DHT22;26977;44.830;-0.674;2022-10-01T03:35:27;14.50;99.90
35690;DHT22;26977;44.830;-0.674;2022-10-01T03:37:52;14.50;99.90
35690;DHT22;26977;44.830;-0.674;2022-10-01T03:40:18;14.50;99.90
35690;DHT22;26977;44.830;-0.674;2022-10-01T03:42:44;14.60;99.90
35690;DHT22;26977;44.830;-0.674;2022-10-01T03:45:10;14.60;99.90
35690;DHT22;26977;44.830;-0.674;2022-10-01T03:47:35;14.60;99.90
35690;DHT22;26977;44.830;-0.674;2022-10-01T03:50:01;14.70;99.90
35690;DHT22;26977;44.830;-0.674;2022-10-01T03:52:27;14.70;99.90
35690;DHT22;26977;44.830;-0.674;2022-10-01T03:54:52;14.70;99.90
35690;DHT22;26977;44.830;-0.674;2022-10-01T03:57:18;14.80;99.90
35690;DHT22;26977;44.830;-0.674;2022-10-01T03:59:43;14.80;99.90
35690;DHT22;26977;44.830;-0.674;2022-10-01T04:02:09;14.80;99.90
35690;DHT22;26977;44.830;-0.674;2022-10-01T04:04:35;14.90;99.90
35690;DHT22;26977;44.830;-0.674;2022-10-01T04:07:00;14.90;99.90
35690;DHT22;26977;44.830;-0.674;2022-10-01T04:09:26;14.90;99.90
35690;DHT22;26977;44.830;-0.674;2022-10-01T04:11:52;14.90;99.90
35690;DHT22;26977;44.830;-0.674;2022-10-01T04:14:17;14.90;99.90
35690;DHT22;26977;44.830;-0.674;2022-10-01T04:16:43;14.90;99.90
35690;DHT22;26977;44.830;-0.674;2022-10-01T04:19:09;14.90;99.90
35690;DHT22;26977;44.830;-0.674;2022-10-01T04:21:35;14.90;99.90
35690;DHT22;26977;44.830;-0.674;2022-10-01T04:24:01;15.00;99.90
35690;DHT22;26977;44.830;-0.674;2022-10-01T04:26:29;15.00;99.90
35690;DHT22;26977;44.830;-0.674;2022-10-01T04:28:55;15.00;99.90
35690;DHT22;26977;44.830;-0.674;2022-10-01T04:31:20;15.00;99.90
35690;DHT22;26977;44.830;-0.674;2022-10-01T04:33:50;15.00;99.90
35690;DHT22;26977;44.830;-0.674;2022-10-01T04:36:16;15.00;99.90
35690;DHT22;26977;44.830;-0.674;2022-10-01T04:38:42;15.00;99.90
35690;DHT22;26977;44.830;-0.674;2022-10-01T04:41:08;15.10;99.90
35690;DHT22;26977;44.830;-0.674;2022-10-01T04:43:34;15.00;99.90
35690;DHT22;26977;44.830;-0.674;2022-10-01T04:45:59;15.10;99.90
35690;DHT22;26977;44.830;-0.674;2022-10-01T04:48:25;15.10;99.90
35690;DHT22;26977;44.830;-0.674;2022-10-01T04:50:51;15.10;99.90
35690;DHT22;26977;44.830;-0.674;2022-10-01T04:53:16;15.10;99.90
35690;DHT22;26977;44.830;-0.674;2022-10-01T04:55:42;15.10;99.90
35690;DHT22;26977;44.830;-0.674;2022-10-01T04:58:08;15.20;99.90
35690;DHT22;26977;44.830;-0.674;2022-10-01T05:00:34;15.20;99.90
35690;DHT22;26977;44.830;-0.674;2022-10-01T05:03:00;15.20;99.90
35690;DHT22;26977;44.830;-0.674;2022-10-01T05:05:26;15.30;99.90
35690;DHT22;26977;44.830;-0.674;2022-10-01T05:07:53;15.30;99.90
35690;DHT22;26977;44.830;-0.674;2022-10-01T05:10:21;15.30;99.90
35690;DHT22;26977;44.830;-0.674;2022-10-01T05:12:47;15.40;99.90
35690;DHT22;26977;44.830;-0.674;2022-10-01T05:15:14;15.40;99.90
35690;DHT22;26977;44.830;-0.674;2022-10-01T05:17:41;15.40;99.90
35690;DHT22;26977;44.830;-0.674;2022-10-01T05:20:09;15.40;99.90
35690;DHT22;26977;44.830;-0.674;2022-10-01T05:22:36;15.50;99.90
35690;DHT22;26977;44.830;-0.674;2022-10-01T05:25:02;15.50;99.90
35690;DHT22;26977;44.830;-0.674;2022-10-01T05:27:29;15.60;99.90
35690;DHT22;26977;44.830;-0.674;2022-10-01T05:29:55;15.60;99.90
35690;DHT22;26977;44.830;-0.674;2022-10-01T05:32:21;15.60;99.90
35690;DHT22;26977;44.830;-0.674;2022-10-01T05:34:47;15.50;99.90
35690;DHT22;26977;44.830;-0.674;2022-10-01T05:37:13;15.50;99.90
35690;DHT22;26977;44.830;-0.674;2022-10-01T05:39:39;15.50;99.90
35690;DHT22;26977;44.830;-0.674;2022-10-01T05:42:05;15.50;99.90
35690;DHT22;26977;44.830;-0.674;2022-10-01T05:44:30;15.50;99.90
35690;DHT22;26977;44.830;-0.674;2022-10-01T05:47:03;15.60;99.90
35690;DHT22;26977;44.830;-0.674;2022-10-01T05:49:29;15.70;99.90
35690;DHT22;26977;44.830;-0.674;2022-10-01T05:51:55;15.80;99.90
35690;DHT22;26977;44.830;-0.674;2022-10-01T05:54:20;15.80;99.90
35690;DHT22;26977;44.830;-0.674;2022-10-01T05:56:49;15.90;99.90
35690;DHT22;26977;44.830;-0.674;2022-10-01T05:59:15;16.00;99.90
35690;DHT22;26977;44.830;-0.674;2022-10-01T06:01:41;16.00;99.90
35690;DHT22;26977;44.830;-0.674;2022-10-01T06:04:08;16.00;99.90
35690;DHT22;26977;44.830;-0.674;2022-10-01T06:06:35;16.00;99.90
35690;DHT22;26977;44.830;-0.674;2022-10-01T06:09:00;16.00;99.90
35690;DHT22;26977;44.830;-0.674;2022-10-01T06:11:26;16.00;99.90
35690;DHT22;26977;44.830;-0.674;2022-10-01T06:13:51;16.00;99.90
35690;DHT22;26977;44.830;-0.674;2022-10-01T06:16:17;16.00;99.90
35690;DHT22;26977;44.830;-0.674;2022-10-01T06:18:46;16.00;99.90
35690;DHT22;26977;44.830;-0.674;2022-10-01T06:21:12;16.00;99.90
35690;DHT22;26977;44.830;-0.674;2022-10-01T06:23:37;16.00;99.90
35690;DHT22;26977;44.830;-0.674;2022-10-01T06:26:04;16.00;99.90
35690;DHT22;26977;44.830;-0.674;2022-10-01T06:28:30;16.00;99.90
35690;DHT22;26977;44.830;-0.674;2022-10-01T06:30:56;16.00;99.90
35690;DHT22;26977;44.830;-0.674;2022-10-01T06:33:22;16.00;99.90
35690;DHT22;26977;44.830;-0.674;2022-10-01T06:35:49;16.00;99.90
35690;DHT22;26977;44.830;-0.674;2022-10-01T06:38:17;16.00;99.90
35690;DHT22;26977;44.830;-0.674;2022-10-01T06:40:49;16.00;99.90
35690;DHT22;26977;44.830;-0.674;2022-10-01T06:43:15;16.00;99.90
35690;DHT22;26977;44.830;-0.674;2022-10-01T06:45:40;16.00;99.90
35690;DHT22;26977;44.830;-0.674;2022-10-01T06:48:07;16.00;99.90
35690;DHT22;26977;44.830;-0.674;2022-10-01T06:50:34;16.00;99.90
35690;DHT22;26977;44.830;-0.674;2022-10-01T06:53:00;16.00;99.90
35690;DHT22;26977;44.830;-0.674;2022-10-01T06:55:29;16.00;99.90
35690;DHT22;26977;44.830;-0.674;2022-10-01T06:58:00;16.00;99.90
35690;DHT22;26977;44.830;-0.674;2022-10-01T07:00:29;16.10;99.90
35690;DHT22;26977;44.830;-0.674;2022-10-01T07:02:55;16.10;99.90
35690;DHT22;26977;44.830;-0.674;2022-10-01T07:05:22;16.10;99.90
35690;DHT22;26977;44.830;-0.674;2022-10-01T07:07:48;16.10;99.90
35690;DHT22;26977;44.830;-0.674;2022-10-01T07:10:14;16.20;99.90
35690;DHT22;26977;44.830;-0.674;2022-10-01T07:12:40;16.20;99.90
35690;DHT22;26977;44.830;-0.674;2022-10-01T07:15:07;16.20;99.90
35690;DHT22;26977;44.830;-0.674;2022-10-01T07:17:33;16.20;99.90
35690;DHT22;26977;44.830;-0.674;2022-10-01T07:19:59;16.30;99.90
35690;DHT22;26977;44.830;-0.674;2022-10-01T07:22:26;16.30;99.90
35690;DHT22;26977;44.830;-0.674;2022-10-01T07:24:51;16.30;99.90
35690;DHT22;26977;44.830;-0.674;2022-10-01T07:27:18;16.40;99.90
35690;DHT22;26977;44.830;-0.674;2022-10-01T07:29:46;16.40;99.90
35690;DHT22;26977;44.830;-0.674;2022-10-01T07:32:11;16.40;99.90
35690;DHT22;26977;44.830;-0.674;2022-10-01T07:34:38;16.40;99.90
35690;DHT22;26977;44.830;-0.674;2022-10-01T07:37:07;16.40;99.90
35690;DHT22;26977;44.830;-0.674;2022-10-01T07:39:34;16.40;99.90
35690;DHT22;26977;44.830;-0.674;2022-10-01T07:42:00;16.50;99.90
35690;DHT22;26977;44.830;-0.674;2022-10-01T07:44:26;16.40;99.90
35690;DHT22;26977;44.830;-0.674;2022-10-01T07:46:54;16.50;99.90
35690;DHT22;26977;44.830;-0.674;2022-10-01T07:49:20;16.50;99.90
35690;DHT22;26977;44.830;-0.674;2022-10-01T07:51:45;16.50;99.90
35690;DHT22;26977;44.830;-0.674;2022-10-01T07:54:13;16.60;99.90
35690;DHT22;26977;44.830;-0.674;2022-10-01T07:56:39;16.60;99.90
35690;DHT22;26977;44.830;-0.674;2022-10-01T07:59:05;16.60;99.90
35690;DHT22;26977;44.830;-0.674;2022-10-01T08:01:32;16.70;99.90
35690;DHT22;26977;44.830;-0.674;2022-10-01T08:03:58;16.70;99.90
35690;DHT22;26977;44.830;-0.674;2022-10-01T08:06:23;16.70;99.90
35690;DHT22;26977;44.830;-0.674;2022-10-01T08:08:49;16.80;99.90
35690;DHT22;26977;44.830;-0.674;2022-10-01T08:11:15;16.80;99.90
35690;DHT22;26977;44.830;-0.674;2022-10-01T08:13:46;16.90;99.90
35690;DHT22;26977;44.830;-0.674;2022-10-01T08:16:12;16.90;99.90
35690;DHT22;26977;44.830;-0.674;2022-10-01T08:18:38;16.90;99.90
35690;DHT22;26977;44.830;-0.674;2022-10-01T08:21:07;17.00;99.90
35690;DHT22;26977;44.830;-0.674;2022-10-01T08:23:33;17.00;99.90
35690;DHT22;26977;44.830;-0.674;2022-10-01T08:26:01;17.00;99.90
35690;DHT22;26977;44.830;-0.674;2022-10-01T08:28:27;17.00;99.90
35690;DHT22;26977;44.830;-0.674;2022-10-01T08:30:53;17.10;99.90
35690;DHT22;26977;44.830;-0.674;2022-10-01T08:33:20;17.10;99.90
35690;DHT22;26977;44.830;-0.674;2022-10-01T08:35:46;17.20;99.90
35690;DHT22;26977;44.830;-0.674;2022-10-01T08:38:12;17.20;99.90
35690;DHT22;26977;44.830;-0.674;2022-10-01T08:40:45;17.30;99.90
35690;DHT22;26977;44.830;-0.674;2022-10-01T08:43:33;17.30;99.90
35690;DHT22;26977;44.830;-0.674;2022-10-01T08:46:06;17.40;99.90
35690;DHT22;26977;44.830;-0.674;2022-10-01T08:49:16;17.50;99.90
35690;DHT22;26977;44.830;-0.674;2022-10-01T08:54:55;17.50;99.90
35690;DHT22;26977;44.830;-0.674;2022-10-01T08:57:26;17.50;99.90
35690;DHT22;26977;44.830;-0.674;2022-10-01T08:59:56;17.50;99.90
35690;DHT22;26977;44.830;-0.674;2022-10-01T09:02:31;17.40;99.90
35690;DHT22;26977;44.830;-0.674;2022-10-01T09:05:02;17.60;99.90
35690;DHT22;26977;44.830;-0.674;2022-10-01T09:10:59;17.60;99.90
35690;DHT22;26977;44.830;-0.674;2022-10-01T09:16:24;17.80;99.90
35690;DHT22;26977;44.830;-0.674;2022-10-01T09:19:14;17.90;99.90
35690;DHT22;26977;44.830;-0.674;2022-10-01T09:21:56;18.00;99.90
35690;DHT22;26977;44.830;-0.674;2022-10-01T09:24:44;18.00;99.90
35690;DHT22;26977;44.830;-0.674;2022-10-01T09:27:16;18.10;99.90
35690;DHT22;26977;44.830;-0.674;2022-10-01T09:29:55;18.40;99.90
35690;DHT22;26977;44.830;-0.674;2022-10-01T09:32:26;18.40;99.90
35690;DHT22;26977;44.830;-0.674;2022-10-01T09:34:55;18.20;99.90
35690;DHT22;26977;44.830;-0.674;2022-10-01T09:43:01;18.10;99.90
35690;DHT22;26977;44.830;-0.674;2022-10-01T09:45:27;18.10;99.90
35690;DHT22;26977;44.830;-0.674;2022-10-01T09:48:00;17.90;99.90
35690;DHT22;26977;44.830;-0.674;2022-10-01T09:50:40;18.00;99.90
35690;DHT22;26977;44.830;-0.674;2022-10-01T09:53:15;18.00;99.90
35690;DHT22;26977;44.830;-0.674;2022-10-01T09:55:46;18.00;99.90
35690;DHT22;26977;44.830;-0.674;2022-10-01T09:58:21;18.10;99.90
35690;DHT22;26977;44.830;-0.674;2022-10-01T10:00:48;18.10;99.90
35690;DHT22;26977;44.830;-0.674;2022-10-01T10:03:51;18.20;99.90
35690;DHT22;26977;44.830;-0.674;2022-10-01T10:06:21;18.10;99.90
35690;DHT22;26977;44.830;-0.674;2022-10-01T10:08:51;18.10;99.90
35690;DHT22;26977;44.830;-0.674;2022-10-01T10:11:23;18.10;99.90
35690;DHT22;26977;44.830;-0.674;2022-10-01T10:13:51;17.90;99.90
35690;DHT22;26977;44.830;-0.674;2022-10-01T10:16:24;17.90;99.90
35690;DHT22;26977;44.830;-0.674;2022-10-01T10:18:51;18.00;99.90
35690;DHT22;26977;44.830;-0.674;2022-10-01T10:21:30;18.20;99.90
35690;DHT22;26977;44.830;-0.674;2022-10-01T10:24:00;18.20;99.90
35690;DHT22;26977;44.830;-0.674;2022-10-01T10:26:36;18.40;99.90
35690;DHT22;26977;44.830;-0.674;2022-10-01T10:29:04;18.50;99.90
35690;DHT22;26977;44.830;-0.674;2022-10-01T10:31:44;18.60;99.90
35690;DHT22;26977;44.830;-0.674;2022-10-01T10:36:57;18.40;99.90
35690;DHT22;26977;44.830;-0.674;2022-10-01T10:39:24;18.40;99.90
35690;DHT22;26977;44.830;-0.674;2022-10-01T10:41:50;18.30;99.90
35690;DHT22;26977;44.830;-0.674;2022-10-01T10:44:19;18.40;99.90
35690;DHT22;26977;44.830;-0.674;2022-10-01T10:46:47;18.70;99.90
35690;DHT22;26977;44.830;-0.674;2022-10-01T10:49:21;18.70;99.90
35690;DHT22;26977;44.830;-0.674;2022-10-01T10:51:50;18.80;99.90
35690;DHT22;26977;44.830;-0.674;2022-10-01T10:56:57;18.90;99.90
35690;DHT22;26977;44.830;-0.674;2022-10-01T10:59:25;18.80;99.90
35690;DHT22;26977;44.830;-0.674;2022-10-01T11:01:51;18.80;99.90
35690;DHT22;26977;44.830;-0.674;2022-10-01T11:04:39;18.90;99.90
35690;DHT22;26977;44.830;-0.674;2022-10-01T11:07:06;19.10;99.90
35690;DHT22;26977;44.830;-0.674;2022-10-01T11:12:47;19.20;99.90
35690;DHT22;26977;44.830;-0.674;2022-10-01T11:32:18;19.00;99.90
35690;DHT22;26977;44.830;-0.674;2022-10-01T11:40:54;18.70;99.90
35690;DHT22;26977;44.830;-0.674;2022-10-01T11:43:28;18.60;99.90
35690;DHT22;26977;44.830;-0.674;2022-10-01T11:45:59;18.80;99.90
35690;DHT22;26977;44.830;-0.674;2022-10-01T11:48:34;18.80;99.90
35690;DHT22;26977;44.830;-0.674;2022-10-01T11:51:08;18.90;99.90
35690;DHT22;26977;44.830;-0.674;2022-10-01T11:53:41;19.00;99.90
35690;DHT22;26977;44.830;-0.674;2022-10-01T11:56:18;18.90;99.90
35690;DHT22;26977;44.830;-0.674;2022-10-01T11:59:08;18.90;99.90
35690;DHT22;26977;44.830;-0.674;2022-10-01T12:01:48;18.70;99.90
35690;DHT22;26977;44.830;-0.674;2022-10-01T12:07:15;18.50;99.90
35690;DHT22;26977;44.830;-0.674;2022-10-01T12:12:41;18.30;99.90
35690;DHT22;26977;44.830;-0.674;2022-10-01T12:15:16;18.20;99.90
35690;DHT22;26977;44.830;-0.674;2022-10-01T12:17:53;18.10;99.90
35690;DHT22;26977;44.830;-0.674;2022-10-01T12:22:58;18.10;99.90
35690;DHT22;26977;44.830;-0.674;2022-10-01T12:25:41;18.20;99.90
35690;DHT22;26977;44.830;-0.674;2022-10-01T12:28:17;18.10;99.90
35690;DHT22;26977;44.830;-0.674;2022-10-01T12:30:55;18.20;99.90
35690;DHT22;26977;44.830;-0.674;2022-10-01T12:36:37;18.20;99.90
35690;DHT22;26977;44.830;-0.674;2022-10-01T12:39:26;18.20;99.90
35690;DHT22;26977;44.830;-0.674;2022-10-01T12:42:08;18.30;99.90
35690;DHT22;26977;44.830;-0.674;2022-10-01T12:52:57;18.20;99.90
35690;DHT22;26977;44.830;-0.674;2022-10-01T12:56:03;18.10;99.90
35690;DHT22;26977;44.830;-0.674;2022-10-01T13:07:16;18.30;99.90
35690;DHT22;26977;44.830;-0.674;2022-10-01T13:09:56;18.20;99.90
35690;DHT22;26977;44.830;-0.674;2022-10-01T13:15:49;18.20;99.90
35690;DHT22;26977;44.830;-0.674;2022-10-01T13:18:38;18.10;99.90
35690;DHT22;26977;44.830;-0.674;2022-10-01T13:26:59;18.10;99.90
35690;DHT22;26977;44.830;-0.674;2022-10-01T13:29:35;18.00;99.90
35690;DHT22;26977;44.830;-0.674;2022-10-01T13:32:29;18.10;99.90
35690;DHT22;26977;44.830;-0.674;2022-10-01T13:34:56;18.20;99.90
35690;DHT22;26977;44.830;-0.674;2022-10-01T13:39:55;18.20;99.90
35690;DHT22;26977;44.830;-0.674;2022-10-01T13:50:31;18.20;99.90
35690;DHT22;26977;44.830;-0.674;2022-10-01T13:53:17;18.20;99.90
35690;DHT22;26977;44.830;-0.674;2022-10-01T13:55:45;18.30;99.90
35690;DHT22;26977;44.830;-0.674;2022-10-01T13:58:32;18.20;99.90
35690;DHT22;26977;44.830;-0.674;2022-10-01T14:01:00;18.20;99.90
35690;DHT22;26977;44.830;-0.674;2022-10-01T14:06:57;18.30;99.90
35690;DHT22;26977;44.830;-0.674;2022-10-01T14:09:30;18.40;99.90
35690;DHT22;26977;44.830;-0.674;2022-10-01T14:12:05;18.30;99.90
35690;DHT22;26977;44.830;-0.674;2022-10-01T14:15:00;18.30;99.90
35690;DHT22;26977;44.830;-0.674;2022-10-01T14:17:46;18.30;99.90
35690;DHT22;26977;44.830;-0.674;2022-10-01T14:20:20;18.30;99.90
35690;DHT22;26977;44.830;-0.674;2022-10-01T14:25:31;18.30;99.90
35690;DHT22;26977;44.830;-0.674;2022-10-01T14:28:15;18.40;99.90
35690;DHT22;26977;44.830;-0.674;2022-10-01T14:31:04;18.30;99.90
35690;DHT22;26977;44.830;-0.674;2022-10-01T14:36:32;18.20;99.90
35690;DHT22;26977;44.830;-0.674;2022-10-01T14:39:28;18.20;99.90
35690;DHT22;26977;44.830;-0.674;2022-10-01T14:41:55;18.30;99.90
35690;DHT22;26977;44.830;-0.674;2022-10-01T14:44:39;18.20;99.90
35690;DHT22;26977;44.830;-0.674;2022-10-01T14:47:32;18.20;99.90
35690;DHT22;26977;44.830;-0.674;2022-10-01T14:50:09;18.30;99.90
35690;DHT22;26977;44.830;-0.674;2022-10-01T14:52:35;18.30;99.90
35690;DHT22;26977;44.830;-0.674;2022-10-01T14:55:07;18.30;99.90
35690;DHT22;26977;44.830;-0.674;2022-10-01T14:57:39;18.30;99.90
35690;DHT22;26977;44.830;-0.674;2022-10-01T15:00:18;18.30;99.90
35690;DHT22;26977;44.830;-0.674;2022-10-01T15:03:02;18.30;99.90
35690;DHT22;26977;44.830;-0.674;2022-10-01T15:05:31;18.40;99.90
35690;DHT22;26977;44.830;-0.674;2022-10-01T15:08:01;18.30;99.90
35690;DHT22;26977;44.830;-0.674;2022-10-01T15:10:27;18.40;99.90
35690;DHT22;26977;44.830;-0.674;2022-10-01T15:12:54;18.40;99.90
35690;DHT22;26977;44.830;-0.674;2022-10-01T15:15:27;18.40;99.90
35690;DHT22;26977;44.830;-0.674;2022-10-01T15:17:53;18.40;99.90
35690;DHT22;26977;44.830;-0.674;2022-10-01T15:20:20;18.50;99.90
35690;DHT22;26977;44.830;-0.674;2022-10-01T15:22:47;18.40;99.90
35690;DHT22;26977;44.830;-0.674;2022-10-01T15:25:20;18.50;99.90
35690;DHT22;26977;44.830;-0.674;2022-10-01T15:27:47;18.40;99.90
35690;DHT22;26977;44.830;-0.674;2022-10-01T15:30:15;18.20;99.90
35690;DHT22;26977;44.830;-0.674;2022-10-01T15:32:44;18.20;99.90
35690;DHT22;26977;44.830;-0.674;2022-10-01T15:35:11;18.10;99.90
35690;DHT22;26977;44.830;-0.674;2022-10-01T15:37:39;18.10;99.90
35690;DHT22;26977;44.830;-0.674;2022-10-01T15:40:20;18.20;99.90
35690;DHT22;26977;44.830;-0.674;2022-10-01T15:45:34;18.20;99.90
35690;DHT22;26977;44.830;-0.674;2022-10-01T15:48:00;18.20;99.90
35690;DHT22;26977;44.830;-0.674;2022-10-01T15:50:32;18.20;99.90
35690;DHT22;26977;44.830;-0.674;2022-10-01T15:55:34;18.20;99.90
35690;DHT22;26977;44.830;-0.674;2022-10-01T16:00:41;18.20;99.90
35690;DHT22;26977;44.830;-0.674;2022-10-01T16:03:19;18.30;99.90
35690;DHT22;26977;44.830;-0.674;2022-10-01T16:05:48;18.30;99.90
35690;DHT22;26977;44.830;-0.674;2022-10-01T16:08:18;18.20;99.90
35690;DHT22;26977;44.830;-0.674;2022-10-01T16:13:39;18.20;99.90
35690;DHT22;26977;44.830;-0.674;2022-10-01T16:18:39;18.20;99.90
35690;DHT22;26977;44.830;-0.674;2022-10-01T16:21:06;18.20;99.90
35690;DHT22;26977;44.830;-0.674;2022-10-01T16:23:41;18.20;99.90
35690;DHT22;26977;44.830;-0.674;2022-10-01T16:28:59;18.20;99.90
35690;DHT22;26977;44.830;-0.674;2022-10-01T16:31:26;18.20;99.90
35690;DHT22;26977;44.830;-0.674;2022-10-01T16:33:51;18.30;99.90
35690;DHT22;26977;44.830;-0.674;2022-10-01T16:36:19;18.30;99.90
35690;DHT22;26977;44.830;-0.674;2022-10-01T16:38:45;18.30;99.90
35690;DHT22;26977;44.830;-0.674;2022-10-01T16:41:16;18.40;99.90
35690;DHT22;26977;44.830;-0.674;2022-10-01T16:43:43;18.20;99.90
35690;DHT22;26977;44.830;-0.674;2022-10-01T16:46:09;18.30;99.90
35690;DHT22;26977;44.830;-0.674;2022-10-01T16:48:35;18.30;99.90
35690;DHT22;26977;44.830;-0.674;2022-10-01T16:51:00;18.40;99.90
35690;DHT22;26977;44.830;-0.674;2022-10-01T16:53:26;18.30;99.90
35690;DHT22;26977;44.830;-0.674;2022-10-01T16:55:52;18.30;99.90
35690;DHT22;26977;44.830;-0.674;2022-10-01T16:58:20;18.30;99.90
35690;DHT22;26977;44.830;-0.674;2022-10-01T17:00:46;18.30;99.90
35690;DHT22;26977;44.830;-0.674;2022-10-01T17:03:15;18.30;99.90
35690;DHT22;26977;44.830;-0.674;2022-10-01T17:05:42;18.30;99.90
35690;DHT22;26977;44.830;-0.674;2022-10-01T17:08:08;18.30;99.90
35690;DHT22;26977;44.830;-0.674;2022-10-01T17:10:39;18.30;99.90
35690;DHT22;26977;44.830;-0.674;2022-10-01T17:13:05;18.20;99.90
35690;DHT22;26977;44.830;-0.674;2022-10-01T17:15:31;18.20;99.90
35690;DHT22;26977;44.830;-0.674;2022-10-01T17:17:58;18.20;99.90
35690;DHT22;26977;44.830;-0.674;2022-10-01T17:20:25;18.10;99.90
35690;DHT22;26977;44.830;-0.674;2022-10-01T17:22:55;18.10;99.90
35690;DHT22;26977;44.830;-0.674;2022-10-01T17:25:23;18.10;99.90
35690;DHT22;26977;44.830;-0.674;2022-10-01T17:27:49;18.10;99.90
35690;DHT22;26977;44.830;-0.674;2022-10-01T17:30:15;18.10;99.90
35690;DHT22;26977;44.830;-0.674;2022-10-01T17:32:42;18.10;99.90
35690;DHT22;26977;44.830;-0.674;2022-10-01T17:35:09;18.00;99.90
35690;DHT22;26977;44.830;-0.674;2022-10-01T17:37:35;18.00;99.90
35690;DHT22;26977;44.830;-0.674;2022-10-01T17:40:02;18.00;99.90
35690;DHT22;26977;44.830;-0.674;2022-10-01T17:42:28;18.00;99.90
35690;DHT22;26977;44.830;-0.674;2022-10-01T17:44:55;18.00;99.90
35690;DHT22;26977;44.830;-0.674;2022-10-01T17:47:20;17.90;99.90
35690;DHT22;26977;44.830;-0.674;2022-10-01T17:49:46;17.90;99.90
35690;DHT22;26977;44.830;-0.674;2022-10-01T17:52:12;17.90;99.90
35690;DHT22;26977;44.830;-0.674;2022-10-01T17:54:37;17.90;99.90
35690;DHT22;26977;44.830;-0.674;2022-10-01T17:57:03;17.90;99.90
35690;DHT22;26977;44.830;-0.674;2022-10-01T17:59:29;17.90;99.90
35690;DHT22;26977;44.830;-0.674;2022-10-01T18:01:55;17.90;99.90